Orbital elements of COSMOS 1275 DEB
| Launched | 3 June 1981 |
| Flight ended | – |
| Launch site | Plesetsk Missile and Space Complex, Russia |
| Owner | Commonwealth of Independent States (former USSR) |
| NORAD ID | 42154 |
| Date fetched |
Epoch osculation |
Inc. [°] |
Ecc. | RA asc node [hr] |
Arg Peri. [°] |
Mean anom [°] |
Mean motion [rev/day] |
Abs. mag |
| Date fetched |
Epoch osculation |
Inc. [°] |
Ecc. | RA asc node [hr] |
Arg Peri. [°] |
Mean anom [°] |
Mean motion [rev/day] |
Abs. mag |
| 2026 May 08 17:57 | 2026 May 05 09:15:00 | 82.8085 | 0.01278 | 23.0431 | 71.5282 | 106.9365 | 13.68544 | – |
| 2026 May 07 17:58 | 2026 May 05 09:15:00 | 82.8085 | 0.01278 | 23.0431 | 71.5282 | 106.9365 | 13.68544 | – |
| 2026 May 06 17:57 | 2026 May 05 09:15:00 | 82.8085 | 0.01278 | 23.0431 | 71.5282 | 106.9365 | 13.68544 | – |
| 2026 May 05 17:57 | 2026 May 05 09:15:00 | 82.8085 | 0.01278 | 23.0431 | 71.5282 | 106.9365 | 13.68544 | – |
| 2026 May 04 17:57 | 2026 Apr 30 09:55:45 | 82.8090 | 0.01277 | 23.2907 | 84.9892 | 106.9365 | 13.68544 | – |
| 2026 May 03 17:57 | 2026 Apr 30 09:55:45 | 82.8090 | 0.01277 | 23.2907 | 84.9892 | 106.9365 | 13.68544 | – |
| 2026 May 02 17:57 | 2026 Apr 30 09:55:45 | 82.8090 | 0.01277 | 23.2907 | 84.9892 | 106.9365 | 13.68544 | – |
| 2026 May 01 17:56 | 2026 Apr 30 09:55:45 | 82.8090 | 0.01277 | 23.2907 | 84.9892 | 106.9365 | 13.68544 | – |
| 2026 Apr 30 17:56 | 2026 Apr 30 09:55:45 | 82.8090 | 0.01277 | 23.2907 | 84.9892 | 106.9365 | 13.68544 | – |
| 2026 Apr 29 17:57 | 2026 Apr 20 22:48:16 | 82.8103 | 0.01270 | 23.7618 | 110.6917 | 106.9365 | 13.68544 | – |
| 2026 Apr 28 17:56 | 2026 Apr 20 22:48:16 | 82.8103 | 0.01270 | 23.7618 | 110.6917 | 106.9365 | 13.68544 | – |
| 2026 Apr 27 17:58 | 2026 Apr 20 22:48:16 | 82.8103 | 0.01270 | 23.7618 | 110.6917 | 106.9365 | 13.68544 | – |
| 2026 Apr 26 17:58 | 2026 Apr 20 22:48:16 | 82.8103 | 0.01270 | 23.7618 | 110.6917 | 106.9365 | 13.68544 | – |
| 2026 Apr 25 17:58 | 2026 Apr 20 22:48:16 | 82.8103 | 0.01270 | 23.7618 | 110.6917 | 106.9365 | 13.68544 | – |
| 2026 Apr 24 17:59 | 2026 Apr 20 22:48:16 | 82.8103 | 0.01270 | 23.7618 | 110.6917 | 106.9365 | 13.68544 | – |
| 2026 Apr 23 17:57 | 2026 Apr 19 10:43:44 | 82.8102 | 0.01269 | 23.8366 | 114.7939 | 106.9365 | 13.68544 | – |
| 2026 Apr 22 17:57 | 2026 Apr 19 10:43:44 | 82.8102 | 0.01269 | 23.8366 | 114.7939 | 106.9365 | 13.68544 | – |
| 2026 Apr 21 17:57 | 2026 Apr 19 10:43:44 | 82.8102 | 0.01269 | 23.8366 | 114.7939 | 106.9365 | 13.68544 | – |
| 2026 Apr 20 17:57 | 2026 Apr 19 10:43:44 | 82.8102 | 0.01269 | 23.8366 | 114.7939 | 106.9365 | 13.68544 | – |
| 2026 Apr 19 17:58 | 2026 Apr 19 10:43:44 | 82.8102 | 0.01269 | 23.8366 | 114.7939 | 106.9365 | 13.68544 | – |
| 2026 Apr 18 17:56 | 2026 Apr 12 12:01:38 | 82.8107 | 0.01261 | 0.1824 | 133.8137 | 106.9365 | 13.68544 | – |
| 2026 Apr 16 17:57 | 2026 Apr 12 12:01:38 | 82.8107 | 0.01261 | 0.1824 | 133.8137 | 106.9365 | 13.68544 | – |
| 2026 Apr 14 17:57 | 2026 Apr 12 12:01:38 | 82.8107 | 0.01261 | 0.1824 | 133.8137 | 106.9365 | 13.68544 | – |
| 2026 Apr 13 17:57 | 2026 Apr 12 12:01:38 | 82.8107 | 0.01261 | 0.1824 | 133.8137 | 106.9365 | 13.68544 | – |
| 2026 Apr 12 17:57 | 2026 Apr 06 00:50:25 | 82.8109 | 0.01253 | 0.5042 | 151.7306 | 106.9365 | 13.68544 | – |
| 2026 Apr 11 17:57 | 2026 Apr 06 00:50:25 | 82.8109 | 0.01253 | 0.5042 | 151.7306 | 106.9365 | 13.68544 | – |